sensor_id;sensor_type;location;lat;lon;timestamp;pressure;altitude;pressure_sealevel;temperature;humidity
24280;BME280;12395;42.808;23.408;2022-12-29T00:01:38;95873.72;;;6.31;91.63
24280;BME280;12395;42.808;23.408;2022-12-29T00:04:04;95869.44;;;6.30;92.55
24280;BME280;12395;42.808;23.408;2022-12-29T00:06:29;95868.75;;;6.28;92.14
24280;BME280;12395;42.808;23.408;2022-12-29T00:08:55;95864.63;;;6.25;92.21
24280;BME280;12395;42.808;23.408;2022-12-29T00:11:22;95864.81;;;6.23;92.09
24280;BME280;12395;42.808;23.408;2022-12-29T00:13:48;95864.13;;;6.21;92.04
24280;BME280;12395;42.808;23.408;2022-12-29T00:16:32;95870.38;;;6.20;92.35
24280;BME280;12395;42.808;23.408;2022-12-29T00:18:57;95876.63;;;6.19;91.61
24280;BME280;12395;42.808;23.408;2022-12-29T00:21:23;95872.50;;;6.17;91.32
24280;BME280;12395;42.808;23.408;2022-12-29T00:24:15;95865.69;;;6.06;90.30
24280;BME280;12395;42.808;23.408;2022-12-29T00:26:47;95876.06;;;6.08;90.63
24280;BME280;12395;42.808;23.408;2022-12-29T00:29:31;95873.56;;;5.98;92.05
24280;BME280;12395;42.808;23.408;2022-12-29T00:32:15;95878.81;;;5.98;92.14
24280;BME280;12395;42.808;23.408;2022-12-29T00:34:59;95888.50;;;5.98;91.61
24280;BME280;12395;42.808;23.408;2022-12-29T00:37:35;95893.94;;;5.96;92.34
24280;BME280;12395;42.808;23.408;2022-12-29T00:40:19;95890.63;;;5.94;92.09
24280;BME280;12395;42.808;23.408;2022-12-29T00:43:03;95898.53;;;5.94;91.74
24280;BME280;12395;42.808;23.408;2022-12-29T00:45:46;95875.50;;;5.96;92.12
24280;BME280;12395;42.808;23.408;2022-12-29T00:48:12;95888.66;;;5.96;92.94
24280;BME280;12395;42.808;23.408;2022-12-29T00:50:37;95892.94;;;5.97;93.33
24280;BME280;12395;42.808;23.408;2022-12-29T00:53:02;95895.25;;;6.00;92.69
24280;BME280;12395;42.808;23.408;2022-12-29T00:55:27;95899.84;;;5.98;92.50
24280;BME280;12395;42.808;23.408;2022-12-29T00:57:53;95902.31;;;6.00;91.92
24280;BME280;12395;42.808;23.408;2022-12-29T01:00:18;95900.53;;;6.00;92.10
24280;BME280;12395;42.808;23.408;2022-12-29T01:02:43;95904.78;;;6.01;91.69
24280;BME280;12395;42.808;23.408;2022-12-29T01:05:08;95897.91;;;6.00;91.63
24280;BME280;12395;42.808;23.408;2022-12-29T01:07:34;95887.38;;;6.00;91.80
24280;BME280;12395;42.808;23.408;2022-12-29T01:09:59;95890.97;;;5.99;91.74
24280;BME280;12395;42.808;23.408;2022-12-29T01:12:37;95896.69;;;5.95;91.91
24280;BME280;12395;42.808;23.408;2022-12-29T01:15:11;95892.94;;;5.97;91.28
24280;BME280;12395;42.808;23.408;2022-12-29T01:17:37;95887.28;;;5.92;91.00
24280;BME280;12395;42.808;23.408;2022-12-29T01:20:05;95891.88;;;5.90;90.48
24280;BME280;12395;42.808;23.408;2022-12-29T01:22:30;95892.22;;;5.87;89.68
24280;BME280;12395;42.808;23.408;2022-12-29T01:24:56;95887.25;;;5.84;89.61
24280;BME280;12395;42.808;23.408;2022-12-29T01:27:21;95876.72;;;5.84;89.97
24280;BME280;12395;42.808;23.408;2022-12-29T01:29:46;95878.31;;;5.77;88.51
24280;BME280;12395;42.808;23.408;2022-12-29T01:32:11;95874.19;;;5.75;88.90
24280;BME280;12395;42.808;23.408;2022-12-29T01:34:37;95869.72;;;5.75;89.53
24280;BME280;12395;42.808;23.408;2022-12-29T01:37:02;95866.22;;;5.67;89.01
24280;BME280;12395;42.808;23.408;2022-12-29T01:39:27;95868.72;;;5.68;89.33
24280;BME280;12395;42.808;23.408;2022-12-29T01:41:52;95853.78;;;5.69;89.23
24280;BME280;12395;42.808;23.408;2022-12-29T01:47:02;95839.47;;;5.71;90.03
24280;BME280;12395;42.808;23.408;2022-12-29T01:49:27;95847.53;;;5.70;89.32
24280;BME280;12395;42.808;23.408;2022-12-29T01:51:55;95844.72;;;5.71;89.76
24280;BME280;12395;42.808;23.408;2022-12-29T01:54:26;95844.13;;;5.77;90.09
24280;BME280;12395;42.808;23.408;2022-12-29T01:56:53;95842.19;;;5.79;89.87
24280;BME280;12395;42.808;23.408;2022-12-29T01:59:22;95841.34;;;5.79;90.77
24280;BME280;12395;42.808;23.408;2022-12-29T02:01:49;95836.91;;;5.79;90.16
24280;BME280;12395;42.808;23.408;2022-12-29T02:04:15;95836.91;;;5.79;90.37
24280;BME280;12395;42.808;23.408;2022-12-29T02:06:42;95831.66;;;5.79;89.90
24280;BME280;12395;42.808;23.408;2022-12-29T02:09:10;95841.34;;;5.79;89.34
24280;BME280;12395;42.808;23.408;2022-12-29T02:11:35;95842.97;;;5.80;89.49
24280;BME280;12395;42.808;23.408;2022-12-29T02:14:01;95840.34;;;5.80;88.66
24280;BME280;12395;42.808;23.408;2022-12-29T02:16:53;95847.44;;;5.79;89.36
24280;BME280;12395;42.808;23.408;2022-12-29T02:21:56;95850.72;;;5.81;90.14
24280;BME280;12395;42.808;23.408;2022-12-29T02:24:48;95843.38;;;5.85;89.62
24280;BME280;12395;42.808;23.408;2022-12-29T02:32:17;95834.66;;;5.84;90.50
24280;BME280;12395;42.808;23.408;2022-12-29T02:37:17;95834.66;;;5.84;89.37
24280;BME280;12395;42.808;23.408;2022-12-29T02:42:37;95837.41;;;5.83;89.89
24280;BME280;12395;42.808;23.408;2022-12-29T02:45:12;95836.31;;;5.85;88.60
24280;BME280;12395;42.808;23.408;2022-12-29T02:47:48;95833.53;;;5.87;89.19
24280;BME280;12395;42.808;23.408;2022-12-29T02:50:17;95829.59;;;5.91;88.92
24280;BME280;12395;42.808;23.408;2022-12-29T02:52:46;95828.47;;;5.93;90.38
24280;BME280;12395;42.808;23.408;2022-12-29T02:55:13;95823.84;;;5.87;90.72
24280;BME280;12395;42.808;23.408;2022-12-29T02:57:38;95831.72;;;5.87;90.94
24280;BME280;12395;42.808;23.408;2022-12-29T03:00:08;95823.00;;;5.87;91.99
24280;BME280;12395;42.808;23.408;2022-12-29T03:15:45;95830.28;;;5.75;93.11
24280;BME280;12395;42.808;23.408;2022-12-29T03:18:47;95825.88;;;5.76;93.16
24280;BME280;12395;42.808;23.408;2022-12-29T03:21:18;95830.00;;;5.78;92.79
24280;BME280;12395;42.808;23.408;2022-12-29T03:23:45;95830.66;;;5.80;93.34
24280;BME280;12395;42.808;23.408;2022-12-29T03:26:14;95827.19;;;5.80;93.48
24280;BME280;12395;42.808;23.408;2022-12-29T03:28:53;95823.09;;;5.77;93.15
24280;BME280;12395;42.808;23.408;2022-12-29T03:31:21;95817.31;;;5.74;91.55
24280;BME280;12395;42.808;23.408;2022-12-29T03:33:48;95818.16;;;5.74;91.68
24280;BME280;12395;42.808;23.408;2022-12-29T03:36:16;95807.78;;;5.73;91.02
24280;BME280;12395;42.808;23.408;2022-12-29T03:38:44;95808.25;;;5.68;91.57
24280;BME280;12395;42.808;23.408;2022-12-29T03:41:12;95805.91;;;5.65;91.67
24280;BME280;12395;42.808;23.408;2022-12-29T03:43:39;95811.13;;;5.57;92.31
24280;BME280;12395;42.808;23.408;2022-12-29T03:46:05;95819.97;;;5.56;91.80
24280;BME280;12395;42.808;23.408;2022-12-29T03:48:30;95814.69;;;5.48;92.11
24280;BME280;12395;42.808;23.408;2022-12-29T03:50:57;95819.38;;;5.36;91.82
24280;BME280;12395;42.808;23.408;2022-12-29T03:53:23;95823.44;;;5.31;92.35
24280;BME280;12395;42.808;23.408;2022-12-29T03:55:48;95822.09;;;5.27;92.66
24280;BME280;12395;42.808;23.408;2022-12-29T03:58:14;95828.63;;;5.23;93.09
24280;BME280;12395;42.808;23.408;2022-12-29T04:00:39;95828.78;;;5.21;93.25
24280;BME280;12395;42.808;23.408;2022-12-29T04:03:04;95830.88;;;5.18;93.32
24280;BME280;12395;42.808;23.408;2022-12-29T04:05:30;95832.03;;;5.15;92.91
24280;BME280;12395;42.808;23.408;2022-12-29T04:07:56;95826.53;;;5.09;93.19
24280;BME280;12395;42.808;23.408;2022-12-29T04:10:21;95822.19;;;5.00;93.79
24280;BME280;12395;42.808;23.408;2022-12-29T04:12:46;95820.75;;;4.88;93.93
24280;BME280;12395;42.808;23.408;2022-12-29T04:15:12;95827.16;;;4.85;94.36
24280;BME280;12395;42.808;23.408;2022-12-29T04:17:37;95826.53;;;4.74;93.81
24280;BME280;12395;42.808;23.408;2022-12-29T04:20:02;95828.09;;;4.66;94.17
24280;BME280;12395;42.808;23.408;2022-12-29T04:22:46;95834.25;;;4.57;94.74
24280;BME280;12395;42.808;23.408;2022-12-29T04:25:11;95831.16;;;4.44;95.14
24280;BME280;12395;42.808;23.408;2022-12-29T04:27:36;95839.75;;;4.37;95.90
24280;BME280;12395;42.808;23.408;2022-12-29T04:30:02;95835.50;;;4.36;95.23
24280;BME280;12395;42.808;23.408;2022-12-29T04:32:27;95834.22;;;4.40;95.50
24280;BME280;12395;42.808;23.408;2022-12-29T04:34:52;95842.44;;;4.45;95.75
24280;BME280;12395;42.808;23.408;2022-12-29T04:37:18;95836.78;;;4.49;95.64
24280;BME280;12395;42.808;23.408;2022-12-29T04:39:43;95844.63;;;4.49;95.99
24280;BME280;12395;42.808;23.408;2022-12-29T04:42:08;95851.63;;;4.58;96.38
24280;BME280;12395;42.808;23.408;2022-12-29T04:44:33;95859.34;;;4.60;95.88
24280;BME280;12395;42.808;23.408;2022-12-29T04:46:59;95858.91;;;4.64;97.44
24280;BME280;12395;42.808;23.408;2022-12-29T04:49:24;95864.16;;;4.64;96.92
24280;BME280;12395;42.808;23.408;2022-12-29T04:51:49;95858.63;;;4.67;97.52
24280;BME280;12395;42.808;23.408;2022-12-29T04:54:14;95858.19;;;4.72;96.81
24280;BME280;12395;42.808;23.408;2022-12-29T04:56:39;95861.34;;;4.76;96.97
24280;BME280;12395;42.808;23.408;2022-12-29T04:59:05;95860.50;;;4.75;97.66
24280;BME280;12395;42.808;23.408;2022-12-29T05:01:30;95854.72;;;4.72;97.24
24280;BME280;12395;42.808;23.408;2022-12-29T05:03:55;95859.09;;;4.81;98.15
24280;BME280;12395;42.808;23.408;2022-12-29T05:06:20;95861.28;;;4.85;98.92
24280;BME280;12395;42.808;23.408;2022-12-29T05:08:46;95862.16;;;4.76;98.38
24280;BME280;12395;42.808;23.408;2022-12-29T05:11:11;95866.31;;;4.79;97.03
24280;BME280;12395;42.808;23.408;2022-12-29T05:13:36;95861.56;;;4.82;97.73
24280;BME280;12395;42.808;23.408;2022-12-29T05:16:02;95864.31;;;4.63;97.50
24280;BME280;12395;42.808;23.408;2022-12-29T05:18:27;95874.06;;;4.70;97.67
24280;BME280;12395;42.808;23.408;2022-12-29T05:20:52;95864.94;;;4.75;97.84
24280;BME280;12395;42.808;23.408;2022-12-29T05:23:17;95864.78;;;4.76;97.75
24280;BME280;12395;42.808;23.408;2022-12-29T05:25:43;95861.56;;;4.82;98.01
24280;BME280;12395;42.808;23.408;2022-12-29T05:28:10;95871.91;;;4.84;97.92
24280;BME280;12395;42.808;23.408;2022-12-29T05:30:35;95867.41;;;4.76;97.62
24280;BME280;12395;42.808;23.408;2022-12-29T05:33:00;95876.00;;;4.68;97.96
24280;BME280;12395;42.808;23.408;2022-12-29T05:35:26;95872.19;;;4.63;98.01
24280;BME280;12395;42.808;23.408;2022-12-29T05:37:51;95873.78;;;4.74;98.35
24280;BME280;12395;42.808;23.408;2022-12-29T05:40:16;95873.84;;;4.82;98.80
24280;BME280;12395;42.808;23.408;2022-12-29T05:42:41;95871.78;;;4.85;99.52
24280;BME280;12395;42.808;23.408;2022-12-29T05:45:07;95870.34;;;4.91;99.76
24280;BME280;12395;42.808;23.408;2022-12-29T05:47:33;95866.09;;;4.90;99.81
24280;BME280;12395;42.808;23.408;2022-12-29T05:49:58;95865.94;;;4.91;99.52
24280;BME280;12395;42.808;23.408;2022-12-29T05:55:09;95875.69;;;4.99;99.26
24280;BME280;12395;42.808;23.408;2022-12-29T05:57:34;95874.72;;;5.00;98.22
24280;BME280;12395;42.808;23.408;2022-12-29T06:00:00;95877.34;;;5.00;98.88
24280;BME280;12395;42.808;23.408;2022-12-29T06:02:25;95876.94;;;4.95;99.41
24280;BME280;12395;42.808;23.408;2022-12-29T06:04:50;95883.19;;;4.94;99.11
24280;BME280;12395;42.808;23.408;2022-12-29T06:07:15;95882.53;;;4.92;99.45
24280;BME280;12395;42.808;23.408;2022-12-29T06:09:41;95885.50;;;4.97;99.57
24280;BME280;12395;42.808;23.408;2022-12-29T06:12:06;95889.47;;;5.01;99.56
24280;BME280;12395;42.808;23.408;2022-12-29T06:14:31;95889.34;;;5.02;99.93
24280;BME280;12395;42.808;23.408;2022-12-29T06:16:56;95883.25;;;5.02;99.71
24280;BME280;12395;42.808;23.408;2022-12-29T06:19:22;95885.22;;;5.00;100.00
24280;BME280;12395;42.808;23.408;2022-12-29T06:21:47;95888.19;;;5.05;99.70
24280;BME280;12395;42.808;23.408;2022-12-29T06:24:12;95886.78;;;5.10;99.34
24280;BME280;12395;42.808;23.408;2022-12-29T06:26:38;95881.38;;;5.12;99.03
24280;BME280;12395;42.808;23.408;2022-12-29T06:29:05;95894.22;;;4.97;98.60
24280;BME280;12395;42.808;23.408;2022-12-29T06:31:31;95896.59;;;4.91;98.47
24280;BME280;12395;42.808;23.408;2022-12-29T06:33:57;95891.88;;;4.94;97.96
24280;BME280;12395;42.808;23.408;2022-12-29T06:36:22;95893.03;;;4.92;97.89
24280;BME280;12395;42.808;23.408;2022-12-29T06:38:47;95894.38;;;4.96;97.97
24280;BME280;12395;42.808;23.408;2022-12-29T06:41:13;95897.06;;;5.04;97.69
24280;BME280;12395;42.808;23.408;2022-12-29T06:43:38;95900.00;;;5.18;96.41
24280;BME280;12395;42.808;23.408;2022-12-29T06:46:04;95900.59;;;5.30;98.30
24280;BME280;12395;42.808;23.408;2022-12-29T06:48:29;95900.97;;;5.35;99.19
24280;BME280;12395;42.808;23.408;2022-12-29T06:50:54;95904.25;;;5.37;99.00
24280;BME280;12395;42.808;23.408;2022-12-29T06:53:19;95901.50;;;5.38;98.54
24280;BME280;12395;42.808;23.408;2022-12-29T06:55:45;95908.41;;;5.39;98.47
24280;BME280;12395;42.808;23.408;2022-12-29T06:58:10;95908.34;;;5.49;98.55
24280;BME280;12395;42.808;23.408;2022-12-29T07:00:35;95904.47;;;5.61;97.44
24280;BME280;12395;42.808;23.408;2022-12-29T07:03:00;95907.31;;;5.68;96.74
24280;BME280;12395;42.808;23.408;2022-12-29T07:05:26;95907.81;;;5.71;96.09
24280;BME280;12395;42.808;23.408;2022-12-29T07:07:52;95915.47;;;5.82;95.88
24280;BME280;12395;42.808;23.408;2022-12-29T07:10:18;95912.94;;;5.90;95.33
24280;BME280;12395;42.808;23.408;2022-12-29T07:12:43;95913.31;;;5.95;93.96
24280;BME280;12395;42.808;23.408;2022-12-29T07:15:08;95912.22;;;6.06;92.12
24280;BME280;12395;42.808;23.408;2022-12-29T07:17:34;95911.59;;;6.12;91.71
24280;BME280;12395;42.808;23.408;2022-12-29T07:19:59;95910.97;;;6.18;91.12
24280;BME280;12395;42.808;23.408;2022-12-29T07:22:24;95911.50;;;6.21;91.25
24280;BME280;12395;42.808;23.408;2022-12-29T07:24:49;95913.00;;;6.24;91.53
24280;BME280;12395;42.808;23.408;2022-12-29T07:27:15;95910.56;;;6.31;91.87
24280;BME280;12395;42.808;23.408;2022-12-29T07:29:40;95911.91;;;6.35;91.48
24280;BME280;12395;42.808;23.408;2022-12-29T07:32:05;95908.47;;;6.42;91.32
24280;BME280;12395;42.808;23.408;2022-12-29T07:34:30;95909.50;;;6.49;91.04
24280;BME280;12395;42.808;23.408;2022-12-29T07:36:56;95911.66;;;6.54;91.29
24280;BME280;12395;42.808;23.408;2022-12-29T07:39:21;95908.38;;;6.52;91.50
24280;BME280;12395;42.808;23.408;2022-12-29T07:41:46;95920.72;;;6.59;91.48
24280;BME280;12395;42.808;23.408;2022-12-29T07:44:12;95910.09;;;6.69;90.24
24280;BME280;12395;42.808;23.408;2022-12-29T07:46:37;95920.81;;;6.75;90.25
24280;BME280;12395;42.808;23.408;2022-12-29T07:49:02;95918.00;;;6.77;90.73
24280;BME280;12395;42.808;23.408;2022-12-29T07:51:27;95925.59;;;6.80;90.66
24280;BME280;12395;42.808;23.408;2022-12-29T07:53:53;95926.94;;;6.84;90.18
24280;BME280;12395;42.808;23.408;2022-12-29T07:56:18;95924.16;;;6.93;90.20
24280;BME280;12395;42.808;23.408;2022-12-29T07:58:43;95917.44;;;7.07;88.95
24280;BME280;12395;42.808;23.408;2022-12-29T08:01:08;95923.88;;;7.13;89.18
24280;BME280;12395;42.808;23.408;2022-12-29T08:03:34;95928.00;;;7.23;88.12
24280;BME280;12395;42.808;23.408;2022-12-29T08:05:59;95924.56;;;7.31;88.01
24280;BME280;12395;42.808;23.408;2022-12-29T08:08:24;95923.44;;;7.41;88.32
24280;BME280;12395;42.808;23.408;2022-12-29T08:10:49;95930.19;;;7.52;86.92
24280;BME280;12395;42.808;23.408;2022-12-29T08:13:14;95927.38;;;7.61;86.92
24280;BME280;12395;42.808;23.408;2022-12-29T08:15:40;95922.16;;;7.69;86.76
24280;BME280;12395;42.808;23.408;2022-12-29T08:18:05;95921.47;;;7.75;87.60
24280;BME280;12395;42.808;23.408;2022-12-29T08:20:31;95926.75;;;7.75;86.66
24280;BME280;12395;42.808;23.408;2022-12-29T08:22:56;95918.19;;;7.82;86.46
24280;BME280;12395;42.808;23.408;2022-12-29T08:25:22;95923.94;;;7.93;86.56
24280;BME280;12395;42.808;23.408;2022-12-29T08:27:47;95917.16;;;7.99;86.22
24280;BME280;12395;42.808;23.408;2022-12-29T08:30:12;95918.31;;;8.12;85.15
24280;BME280;12395;42.808;23.408;2022-12-29T08:32:37;95917.28;;;8.21;84.60
24280;BME280;12395;42.808;23.408;2022-12-29T08:35:03;95914.84;;;8.28;84.67
24280;BME280;12395;42.808;23.408;2022-12-29T08:37:28;95915.66;;;8.28;84.41
24280;BME280;12395;42.808;23.408;2022-12-29T08:39:53;95916.16;;;8.32;84.22
24280;BME280;12395;42.808;23.408;2022-12-29T08:42:19;95915.00;;;8.26;84.46
24280;BME280;12395;42.808;23.408;2022-12-29T08:44:44;95912.53;;;8.25;84.68
24280;BME280;12395;42.808;23.408;2022-12-29T08:47:10;95917.16;;;8.31;84.71
24280;BME280;12395;42.808;23.408;2022-12-29T08:49:35;95917.47;;;8.36;84.20
24280;BME280;12395;42.808;23.408;2022-12-29T08:52:01;95916.81;;;8.34;84.06
24280;BME280;12395;42.808;23.408;2022-12-29T08:54:26;95916.16;;;8.32;84.23
24280;BME280;12395;42.808;23.408;2022-12-29T08:56:51;95909.56;;;8.36;84.32
24280;BME280;12395;42.808;23.408;2022-12-29T08:59:16;95911.19;;;8.37;85.04
24280;BME280;12395;42.808;23.408;2022-12-29T09:01:42;95909.53;;;8.44;84.22
24280;BME280;12395;42.808;23.408;2022-12-29T09:04:07;95916.44;;;8.53;83.67
24280;BME280;12395;42.808;23.408;2022-12-29T09:06:33;95903.38;;;8.60;84.68
24280;BME280;12395;42.808;23.408;2022-12-29T09:08:58;95905.53;;;8.56;83.50
24280;BME280;12395;42.808;23.408;2022-12-29T09:11:24;95901.25;;;8.55;83.33
24280;BME280;12395;42.808;23.408;2022-12-29T09:13:49;95907.38;;;8.47;83.42
24280;BME280;12395;42.808;23.408;2022-12-29T09:16:15;95906.53;;;8.47;84.20
24280;BME280;12395;42.808;23.408;2022-12-29T09:18:42;95901.25;;;8.55;84.77
24280;BME280;12395;42.808;23.408;2022-12-29T09:21:07;95899.53;;;8.70;83.70
24280;BME280;12395;42.808;23.408;2022-12-29T09:23:33;95900.97;;;8.81;82.10
24280;BME280;12395;42.808;23.408;2022-12-29T09:25:58;95901.59;;;8.91;83.00
24280;BME280;12395;42.808;23.408;2022-12-29T09:28:24;95903.53;;;8.97;81.55
24280;BME280;12395;42.808;23.408;2022-12-29T09:30:49;95894.09;;;9.02;82.43
24280;BME280;12395;42.808;23.408;2022-12-29T09:33:15;95885.34;;;9.02;82.23
24280;BME280;12395;42.808;23.408;2022-12-29T09:35:41;95898.84;;;9.07;81.69
24280;BME280;12395;42.808;23.408;2022-12-29T09:38:07;95888.59;;;9.12;80.93
24280;BME280;12395;42.808;23.408;2022-12-29T09:40:32;95883.75;;;9.15;80.78
24280;BME280;12395;42.808;23.408;2022-12-29T09:45:45;95879.19;;;9.09;81.26
24280;BME280;12395;42.808;23.408;2022-12-29T09:48:34;95874.19;;;9.14;81.78
24280;BME280;12395;42.808;23.408;2022-12-29T09:50:58;95862.91;;;9.20;81.81
24280;BME280;12395;42.808;23.408;2022-12-29T09:53:27;95862.34;;;9.33;81.91
24280;BME280;12395;42.808;23.408;2022-12-29T09:55:55;95859.88;;;9.31;79.63
24280;BME280;12395;42.808;23.408;2022-12-29T09:58:28;95861.50;;;9.32;79.25
24280;BME280;12395;42.808;23.408;2022-12-29T10:01:18;95866.44;;;9.36;79.52
24280;BME280;12395;42.808;23.408;2022-12-29T10:03:47;95866.03;;;9.47;80.04
24280;BME280;12395;42.808;23.408;2022-12-29T10:08:47;95859.50;;;9.57;79.68
24280;BME280;12395;42.808;23.408;2022-12-29T10:11:23;95851.88;;;9.62;80.60
24280;BME280;12395;42.808;23.408;2022-12-29T10:14:17;95848.94;;;9.57;81.33
24280;BME280;12395;42.808;23.408;2022-12-29T10:23:04;95852.69;;;9.63;80.45
24280;BME280;12395;42.808;23.408;2022-12-29T10:25:37;95834.09;;;9.71;80.45
24280;BME280;12395;42.808;23.408;2022-12-29T10:28:19;95837.03;;;9.76;80.23
24280;BME280;12395;42.808;23.408;2022-12-29T10:30:46;95827.72;;;9.80;79.08
24280;BME280;12395;42.808;23.408;2022-12-29T10:33:14;95831.47;;;9.85;79.56
24280;BME280;12395;42.808;23.408;2022-12-29T10:35:41;95828.31;;;9.90;80.43
24280;BME280;12395;42.808;23.408;2022-12-29T10:38:13;95826.63;;;9.89;79.52
24280;BME280;12395;42.808;23.408;2022-12-29T10:40:48;95823.69;;;9.84;78.10
24280;BME280;12395;42.808;23.408;2022-12-29T10:45:41;95818.31;;;9.77;80.47
24280;BME280;12395;42.808;23.408;2022-12-29T10:48:18;95814.75;;;9.70;79.88
24280;BME280;12395;42.808;23.408;2022-12-29T10:50:45;95809.63;;;9.69;80.27
24280;BME280;12395;42.808;23.408;2022-12-29T10:53:12;95805.44;;;9.74;81.40
24280;BME280;12395;42.808;23.408;2022-12-29T10:55:41;95811.50;;;9.83;80.39
24280;BME280;12395;42.808;23.408;2022-12-29T10:58:07;95809.13;;;9.88;80.85
24280;BME280;12395;42.808;23.408;2022-12-29T11:00:35;95805.38;;;9.97;80.95
24280;BME280;12395;42.808;23.408;2022-12-29T11:05:34;95806.59;;;10.09;80.03
24280;BME280;12395;42.808;23.408;2022-12-29T11:08:02;95794.97;;;10.10;79.43
24280;BME280;12395;42.808;23.408;2022-12-29T11:10:30;95800.38;;;10.02;79.86
24280;BME280;12395;42.808;23.408;2022-12-29T11:13:01;95795.97;;;9.94;79.60
24280;BME280;12395;42.808;23.408;2022-12-29T11:15:26;95793.31;;;9.94;79.55
24280;BME280;12395;42.808;23.408;2022-12-29T11:17:56;95795.91;;;9.88;80.10
24280;BME280;12395;42.808;23.408;2022-12-29T11:22:52;95791.88;;;9.92;79.40
24280;BME280;12395;42.808;23.408;2022-12-29T11:25:17;95790.31;;;9.83;78.96
24280;BME280;12395;42.808;23.408;2022-12-29T11:27:54;95789.03;;;9.79;80.08
24280;BME280;12395;42.808;23.408;2022-12-29T11:30:23;95784.38;;;9.66;80.56
24280;BME280;12395;42.808;23.408;2022-12-29T11:32:50;95779.50;;;9.55;80.80
24280;BME280;12395;42.808;23.408;2022-12-29T11:35:35;95780.97;;;9.58;81.58
24280;BME280;12395;42.808;23.408;2022-12-29T11:38:00;95774.66;;;9.59;80.09
24280;BME280;12395;42.808;23.408;2022-12-29T11:40:27;95779.63;;;9.62;80.52
24280;BME280;12395;42.808;23.408;2022-12-29T11:45:19;95771.19;;;9.58;81.45
24280;BME280;12395;42.808;23.408;2022-12-29T11:47:45;95773.31;;;9.63;82.02
24280;BME280;12395;42.808;23.408;2022-12-29T11:50:16;95777.88;;;9.69;81.91
24280;BME280;12395;42.808;23.408;2022-12-29T11:52:42;95773.41;;;9.69;81.90
24280;BME280;12395;42.808;23.408;2022-12-29T11:55:16;95770.59;;;9.71;81.80
24280;BME280;12395;42.808;23.408;2022-12-29T11:57:42;95764.75;;;9.75;82.06
24280;BME280;12395;42.808;23.408;2022-12-29T12:00:24;95758.09;;;9.79;82.81
24280;BME280;12395;42.808;23.408;2022-12-29T12:03:11;95762.09;;;9.75;82.14
24280;BME280;12395;42.808;23.408;2022-12-29T12:05:55;95757.09;;;9.80;80.51
24280;BME280;12395;42.808;23.408;2022-12-29T12:16:15;95743.41;;;10.06;79.54
24280;BME280;12395;42.808;23.408;2022-12-29T12:26:30;95731.16;;;10.34;79.28
24280;BME280;12395;42.808;23.408;2022-12-29T12:28:59;95739.91;;;10.49;78.22
24280;BME280;12395;42.808;23.408;2022-12-29T12:34:19;95727.72;;;10.55;77.48
24280;BME280;12395;42.808;23.408;2022-12-29T12:39:26;95718.47;;;10.65;76.63
24280;BME280;12395;42.808;23.408;2022-12-29T12:44:39;95723.69;;;10.59;76.26
24280;BME280;12395;42.808;23.408;2022-12-29T12:47:13;95717.97;;;10.55;77.03
24280;BME280;12395;42.808;23.408;2022-12-29T12:57:17;95724.75;;;10.43;78.22
24280;BME280;12395;42.808;23.408;2022-12-29T13:04:56;95720.19;;;10.37;79.15
24280;BME280;12395;42.808;23.408;2022-12-29T13:15:46;95718.16;;;10.39;80.99
24280;BME280;12395;42.808;23.408;2022-12-29T13:23:39;95719.38;;;10.37;80.97
24280;BME280;12395;42.808;23.408;2022-12-29T13:26:08;95723.22;;;10.34;81.70
24280;BME280;12395;42.808;23.408;2022-12-29T13:33:51;95730.88;;;10.29;81.46
24280;BME280;12395;42.808;23.408;2022-12-29T13:36:22;95725.06;;;10.19;82.04
24280;BME280;12395;42.808;23.408;2022-12-29T13:38:51;95727.28;;;10.16;82.63
24280;BME280;12395;42.808;23.408;2022-12-29T13:41:25;95727.44;;;10.14;82.47
24280;BME280;12395;42.808;23.408;2022-12-29T13:43:52;95727.06;;;10.02;82.00
24280;BME280;12395;42.808;23.408;2022-12-29T13:46:21;95722.03;;;9.93;82.58
24280;BME280;12395;42.808;23.408;2022-12-29T13:48:55;95728.81;;;9.81;83.28
24280;BME280;12395;42.808;23.408;2022-12-29T13:51:23;95734.72;;;9.68;84.58
24280;BME280;12395;42.808;23.408;2022-12-29T13:56:26;95725.97;;;9.53;84.51
24280;BME280;12395;42.808;23.408;2022-12-29T13:58:57;95733.59;;;9.48;84.62
24280;BME280;12395;42.808;23.408;2022-12-29T14:01:30;95730.09;;;9.33;85.11
24280;BME280;12395;42.808;23.408;2022-12-29T14:03:59;95727.72;;;9.23;84.81
24280;BME280;12395;42.808;23.408;2022-12-29T14:09:03;95734.16;;;9.06;85.93
24280;BME280;12395;42.808;23.408;2022-12-29T14:11:36;95730.91;;;8.96;86.51
24280;BME280;12395;42.808;23.408;2022-12-29T14:16:37;95735.97;;;8.83;87.10
24280;BME280;12395;42.808;23.408;2022-12-29T14:21:40;95738.28;;;8.64;88.67
24280;BME280;12395;42.808;23.408;2022-12-29T14:26:50;95745.63;;;8.45;88.49
24280;BME280;12395;42.808;23.408;2022-12-29T14:29:22;95746.31;;;8.39;88.97
24280;BME280;12395;42.808;23.408;2022-12-29T14:32:00;95752.75;;;8.37;89.48
24280;BME280;12395;42.808;23.408;2022-12-29T14:34:27;95740.44;;;8.29;90.29
24280;BME280;12395;42.808;23.408;2022-12-29T14:36:59;95746.88;;;8.27;90.64
24280;BME280;12395;42.808;23.408;2022-12-29T14:42:00;95749.53;;;8.19;90.47
24280;BME280;12395;42.808;23.408;2022-12-29T14:44:26;95747.59;;;8.05;90.64
24280;BME280;12395;42.808;23.408;2022-12-29T14:49:22;95746.09;;;7.71;94.27
24280;BME280;12395;42.808;23.408;2022-12-29T14:51:49;95748.25;;;7.52;95.61
24280;BME280;12395;42.808;23.408;2022-12-29T14:56:59;95742.19;;;7.43;95.20
24280;BME280;12395;42.808;23.408;2022-12-29T14:59:26;95746.97;;;7.40;92.76
24280;BME280;12395;42.808;23.408;2022-12-29T15:01:52;95740.91;;;7.07;93.17
24280;BME280;12395;42.808;23.408;2022-12-29T15:04:23;95739.25;;;6.98;95.37
24280;BME280;12395;42.808;23.408;2022-12-29T15:06:51;95742.19;;;6.95;95.61
24280;BME280;12395;42.808;23.408;2022-12-29T15:11:49;95742.53;;;6.68;98.49
24280;BME280;12395;42.808;23.408;2022-12-29T15:16:53;95736.56;;;6.42;100.00
24280;BME280;12395;42.808;23.408;2022-12-29T15:19:25;95740.00;;;6.42;100.00